createdAt,value
2019-03-28T00:00:56.911Z,8.60
2019-03-28T00:03:27.778Z,8.60
2019-03-28T00:05:59.898Z,8.60
2019-03-28T00:08:31.138Z,8.50
2019-03-28T00:11:02.253Z,8.60
2019-03-28T00:13:33.278Z,8.60
2019-03-28T00:16:04.438Z,8.60
2019-03-28T00:18:35.410Z,8.60
2019-03-28T00:21:07.419Z,8.60
2019-03-28T00:23:46.888Z,8.60
2019-03-28T00:26:29.553Z,8.50
2019-03-28T00:28:51.958Z,8.60
2019-03-28T00:31:22.981Z,8.60
2019-03-28T00:33:53.914Z,8.60
2019-03-28T00:36:25.239Z,8.60
2019-03-28T00:38:56.189Z,8.60
2019-03-28T00:41:27.180Z,8.60
2019-03-28T00:43:58.208Z,8.60
2019-03-28T00:46:29.249Z,8.50
2019-03-28T00:49:00.302Z,8.60
2019-03-28T00:51:32.900Z,8.50
2019-03-28T00:54:05.810Z,8.60
2019-03-28T00:56:46.571Z,8.60
2019-03-28T00:59:09.248Z,8.60
2019-03-28T01:01:40.241Z,8.60
2019-03-28T01:04:12.834Z,8.60
2019-03-28T01:06:43.841Z,8.60
2019-03-28T01:09:14.755Z,8.60
2019-03-28T01:11:46.238Z,8.60
2019-03-28T01:14:17.192Z,8.60
2019-03-28T01:16:48.178Z,8.60
2019-03-28T01:19:19.146Z,8.60
2019-03-28T01:21:50.104Z,8.60
2019-03-28T01:24:20.880Z,8.60
2019-03-28T01:26:57.442Z,8.60
2019-03-28T01:29:25.109Z,8.60
2019-03-28T01:31:56.023Z,8.60
2019-03-28T01:34:30.111Z,8.60
2019-03-28T01:37:02.091Z,8.60
2019-03-28T01:39:32.911Z,8.60
2019-03-28T01:42:03.722Z,8.60
2019-03-28T01:44:35.650Z,8.60
2019-03-28T01:47:06.442Z,8.60
2019-03-28T01:49:37.429Z,8.60
2019-03-28T01:52:08.374Z,8.60
2019-03-28T01:54:39.293Z,8.50
2019-03-28T01:57:11.479Z,8.50
2019-03-28T01:59:42.793Z,8.50
2019-03-28T02:02:13.698Z,8.40
2019-03-28T02:04:44.527Z,8.40
2019-03-28T02:07:15.509Z,8.40
2019-03-28T02:09:46.541Z,8.40
2019-03-28T02:12:17.481Z,8.30
2019-03-28T02:14:48.486Z,8.30
2019-03-28T02:17:19.439Z,8.30
2019-03-28T02:19:50.480Z,8.30
2019-03-28T02:22:21.416Z,8.30
2019-03-28T02:24:52.312Z,8.20
2019-03-28T02:27:24.531Z,8.20
2019-03-28T02:29:55.581Z,8.20
2019-03-28T02:32:26.449Z,8.20
2019-03-28T02:34:57.370Z,8.20
2019-03-28T02:37:28.582Z,8.20
2019-03-28T02:39:59.477Z,8.20
2019-03-28T02:42:32.012Z,8.10
2019-03-28T02:45:03.754Z,8.20
2019-03-28T02:47:35.903Z,8.20
2019-03-28T02:50:07.257Z,8.20
2019-03-28T02:52:38.189Z,8.20
2019-03-28T02:55:10.025Z,8.20
2019-03-28T02:57:43.571Z,8.20
2019-03-28T03:00:13.774Z,8.20
2019-03-28T03:02:44.811Z,8.20
2019-03-28T03:05:15.827Z,8.20
2019-03-28T03:07:46.918Z,8.20
2019-03-28T03:10:17.905Z,8.20
2019-03-28T03:12:48.864Z,8.20
2019-03-28T03:15:19.803Z,8.30
2019-03-28T03:17:50.796Z,8.30
2019-03-28T03:20:21.758Z,8.20
2019-03-28T03:22:52.601Z,8.20
2019-03-28T03:25:23.410Z,8.20
2019-03-28T03:27:58.563Z,8.20
2019-03-28T03:30:27.045Z,8.20
2019-03-28T03:32:58.029Z,8.20
2019-03-28T03:35:28.927Z,8.20
2019-03-28T03:37:59.833Z,8.20
2019-03-28T03:40:30.737Z,8.20
2019-03-28T03:43:02.206Z,8.20
2019-03-28T03:45:36.967Z,8.20
2019-03-28T03:48:07.693Z,8.20
2019-03-28T03:50:38.642Z,8.20
2019-03-28T03:53:09.625Z,8.30
2019-03-28T03:55:40.549Z,8.20
2019-03-28T03:58:16.408Z,8.20
2019-03-28T04:00:44.047Z,8.20
2019-03-28T04:03:15.984Z,8.30
2019-03-28T04:05:49.638Z,8.20
2019-03-28T04:08:20.753Z,8.20
2019-03-28T04:10:51.624Z,8.30
2019-03-28T04:13:22.552Z,8.30
2019-03-28T04:15:53.546Z,8.30
2019-03-28T04:18:24.451Z,8.30
2019-03-28T04:20:55.382Z,8.30
2019-03-28T04:23:26.304Z,8.20
2019-03-28T04:25:57.264Z,8.20
2019-03-28T04:28:31.989Z,8.20
2019-03-28T04:31:00.723Z,8.20
2019-03-28T04:33:31.645Z,8.20
2019-03-28T04:36:02.568Z,8.20
2019-03-28T04:38:34.483Z,8.20
2019-03-28T04:41:05.443Z,8.10
2019-03-28T04:43:36.379Z,8.10
2019-03-28T04:46:07.306Z,8.20
2019-03-28T04:48:40.116Z,8.10
2019-03-28T04:51:11.915Z,8.20
2019-03-28T04:53:43.153Z,8.20
2019-03-28T04:56:14.005Z,8.10
2019-03-28T04:58:45.117Z,8.10
2019-03-28T05:01:15.981Z,8.10
2019-03-28T05:03:47.088Z,8.10
2019-03-28T05:06:17.981Z,8.10
2019-03-28T05:08:50.617Z,8.10
2019-03-28T05:11:21.502Z,8.10
2019-03-28T05:13:52.408Z,8.10
2019-03-28T05:16:23.406Z,8.10
2019-03-28T05:18:58.312Z,8.10
2019-03-28T05:21:29.194Z,8.10
2019-03-28T05:24:00.189Z,8.10
2019-03-28T05:26:31.089Z,8.10
2019-03-28T05:29:02.253Z,8.10
2019-03-28T05:31:34.318Z,8.10
2019-03-28T05:34:05.473Z,8.10
2019-03-28T05:36:36.477Z,8.10
2019-03-28T05:39:08.283Z,8.00
2019-03-28T05:41:39.190Z,8.10
2019-03-28T05:44:10.180Z,8.10
2019-03-28T05:46:41.069Z,8.10
2019-03-28T05:49:12.008Z,8.10
2019-03-28T05:51:42.968Z,8.10
2019-03-28T05:54:13.832Z,8.10
2019-03-28T05:56:45.748Z,8.10
2019-03-28T05:59:19.460Z,8.10
2019-03-28T06:01:55.724Z,8.10
2019-03-28T06:04:26.601Z,8.10
2019-03-28T06:06:57.500Z,8.20
2019-03-28T06:09:29.736Z,8.20
2019-03-28T06:12:00.698Z,8.20
2019-03-28T06:14:31.900Z,8.20
2019-03-28T06:17:03.097Z,8.20
2019-03-28T06:19:34.280Z,8.20
2019-03-28T06:22:05.220Z,8.20
2019-03-28T06:24:36.221Z,8.30
2019-03-28T06:27:07.577Z,8.20
2019-03-28T06:29:40.214Z,8.30
2019-03-28T06:32:11.179Z,8.30
2019-03-28T06:34:42.297Z,8.30
2019-03-28T06:37:13.309Z,8.40
2019-03-28T06:39:44.228Z,8.30
2019-03-28T06:42:15.250Z,8.40
2019-03-28T06:44:46.249Z,8.40
2019-03-28T06:47:17.167Z,8.40
2019-03-28T06:49:51.435Z,8.40
2019-03-28T06:52:22.400Z,8.40
2019-03-28T06:54:53.423Z,8.40
2019-03-28T06:57:25.482Z,8.40
2019-03-28T06:59:56.505Z,8.40
2019-03-28T07:02:27.381Z,8.40
2019-03-28T07:04:58.399Z,8.40
2019-03-28T07:07:29.368Z,8.50
2019-03-28T07:10:02.421Z,8.50
2019-03-28T07:12:33.062Z,8.50
2019-03-28T07:15:05.769Z,8.50
2019-03-28T07:17:36.706Z,8.50
2019-03-28T07:20:09.293Z,8.50
2019-03-28T07:22:40.393Z,8.50
2019-03-28T07:25:11.624Z,8.50
2019-03-28T07:27:43.481Z,8.50
2019-03-28T07:30:16.522Z,8.50
2019-03-28T07:32:47.563Z,8.60
2019-03-28T07:35:18.519Z,8.60
2019-03-28T07:37:49.444Z,8.60
2019-03-28T07:40:20.396Z,8.60
2019-03-28T07:42:51.344Z,8.70
2019-03-28T07:45:22.478Z,8.70
2019-03-28T07:47:53.528Z,8.70
2019-03-28T07:50:24.527Z,8.80
2019-03-28T07:52:57.083Z,8.80
2019-03-28T07:55:28.093Z,8.70
2019-03-28T07:57:59.098Z,8.80
2019-03-28T08:00:30.051Z,8.80
2019-03-28T08:03:01.068Z,8.90
2019-03-28T08:05:32.242Z,8.80
2019-03-28T08:08:03.268Z,8.80
2019-03-28T08:10:34.409Z,8.90
2019-03-28T08:13:05.334Z,8.90
2019-03-28T08:15:36.318Z,8.90
2019-03-28T08:18:07.264Z,9.00
2019-03-28T08:20:38.107Z,9.00
2019-03-28T08:23:08.962Z,9.10
2019-03-28T08:25:39.960Z,9.10
2019-03-28T08:28:11.060Z,9.10
2019-03-28T08:30:45.169Z,9.10
2019-03-28T08:33:14.664Z,9.10
2019-03-28T08:35:45.669Z,9.10
2019-03-28T08:38:17.973Z,9.20
2019-03-28T08:40:50.007Z,9.30
2019-03-28T08:43:21.009Z,9.40
2019-03-28T08:45:52.038Z,9.40
2019-03-28T08:48:22.975Z,9.50
2019-03-28T08:50:53.912Z,9.50
2019-03-28T08:53:24.834Z,9.60
2019-03-28T08:55:55.926Z,9.50
2019-03-28T08:58:26.892Z,9.70
2019-03-28T09:00:57.905Z,9.80
2019-03-28T09:03:28.866Z,9.70
2019-03-28T09:06:00.737Z,9.70
2019-03-28T09:08:31.949Z,9.80
2019-03-28T09:11:03.593Z,9.90
2019-03-28T09:13:34.713Z,9.80
2019-03-28T09:16:05.748Z,10.00
2019-03-28T09:18:36.763Z,9.90
2019-03-28T09:21:09.761Z,10.00
2019-03-28T09:23:40.752Z,10.00
2019-03-28T09:26:15.075Z,10.00
2019-03-28T09:28:46.042Z,10.00
2019-03-28T09:31:20.136Z,10.10
2019-03-28T09:33:50.096Z,10.10
2019-03-28T09:36:21.159Z,10.20
2019-03-28T09:38:52.326Z,10.30
2019-03-28T09:41:24.994Z,10.20
2019-03-28T09:43:56.147Z,10.30
2019-03-28T09:46:27.124Z,10.30
2019-03-28T09:48:59.612Z,10.40
2019-03-28T09:51:30.572Z,10.40
2019-03-28T09:54:01.677Z,10.20
2019-03-28T09:56:32.893Z,10.30
2019-03-28T09:59:03.907Z,10.40
2019-03-28T10:01:35.061Z,10.40
2019-03-28T10:04:06.683Z,10.30
2019-03-28T10:06:37.774Z,10.20
2019-03-28T10:09:09.126Z,10.20
2019-03-28T10:11:41.752Z,10.20
2019-03-28T10:14:12.729Z,10.20
2019-03-28T10:16:43.689Z,10.30
2019-03-28T10:19:14.674Z,10.30
2019-03-28T10:21:45.674Z,10.20
2019-03-28T10:24:16.672Z,10.30
2019-03-28T10:26:47.661Z,10.30
2019-03-28T10:29:18.833Z,10.40
2019-03-28T10:31:49.953Z,10.60
2019-03-28T10:34:21.169Z,10.80
2019-03-28T10:36:52.199Z,11.00
2019-03-28T10:39:24.730Z,11.10
2019-03-28T10:41:55.802Z,11.10
2019-03-28T10:44:27.910Z,10.90
2019-03-28T10:47:00.410Z,11.10
2019-03-28T10:49:31.370Z,11.10
2019-03-28T10:52:04.043Z,11.20
2019-03-28T10:54:36.425Z,11.30
2019-03-28T10:57:13.422Z,11.30
2019-03-28T10:59:39.933Z,11.40
2019-03-28T11:02:10.994Z,11.70
2019-03-28T11:18:55.912Z,11.70
2019-03-28T11:21:26.981Z,11.70
2019-03-28T11:23:59.160Z,11.80
2019-03-28T11:26:31.389Z,11.90
2019-03-28T11:29:02.632Z,11.90
2019-03-28T11:31:45.645Z,11.90
2019-03-28T11:34:07.793Z,12.00
2019-03-28T11:36:39.109Z,11.90
2019-03-28T11:39:12.569Z,11.80
2019-03-28T11:41:43.587Z,11.80
2019-03-28T11:44:14.716Z,11.90
2019-03-28T11:46:45.894Z,11.90
2019-03-28T11:49:17.079Z,11.90
2019-03-28T11:51:48.112Z,11.90
2019-03-28T11:54:19.180Z,12.00
2019-03-28T11:56:50.188Z,12.00
2019-03-28T11:59:21.080Z,12.00
2019-03-28T12:01:59.734Z,12.30
2019-03-28T12:04:24.781Z,12.30
2019-03-28T12:06:55.949Z,12.50
2019-03-28T12:09:29.477Z,12.50
2019-03-28T12:12:00.537Z,12.40
2019-03-28T12:14:35.399Z,12.60
2019-03-28T12:17:06.598Z,12.50
2019-03-28T12:19:37.832Z,12.40
2019-03-28T12:22:10.251Z,12.60
2019-03-28T12:24:41.253Z,12.40
2019-03-28T12:27:13.799Z,12.40
2019-03-28T12:29:44.896Z,12.50
2019-03-28T12:32:16.946Z,12.60
2019-03-28T12:34:49.670Z,12.50
2019-03-28T12:37:21.687Z,12.50
2019-03-28T12:39:52.755Z,12.70
2019-03-28T12:42:27.227Z,13.00
2019-03-28T12:44:59.016Z,12.90
2019-03-28T12:47:41.804Z,13.00
2019-03-28T12:50:04.618Z,12.90
2019-03-28T12:52:35.638Z,13.00
2019-03-28T12:55:07.119Z,13.00
2019-03-28T12:57:38.051Z,13.10
2019-03-28T13:00:11.955Z,13.30
2019-03-28T13:02:42.957Z,13.00
2019-03-28T13:05:14.221Z,13.10
2019-03-28T13:07:45.132Z,12.90
2019-03-28T13:10:16.509Z,13.10
2019-03-28T13:12:47.438Z,13.30
2019-03-28T13:15:18.412Z,13.10
2019-03-28T13:17:49.490Z,13.10
2019-03-28T13:20:22.161Z,13.10
2019-03-28T13:22:53.138Z,13.20
2019-03-28T13:25:24.227Z,13.20
2019-03-28T13:27:55.224Z,13.30
2019-03-28T13:30:26.165Z,13.30
2019-03-28T13:32:57.164Z,13.50
2019-03-28T13:35:35.126Z,13.60
2019-03-28T13:38:05.413Z,13.50
2019-03-28T13:40:36.638Z,13.70
2019-03-28T13:43:07.442Z,13.60
2019-03-28T13:45:38.439Z,13.80
2019-03-28T13:48:13.598Z,13.80
2019-03-28T13:50:42.938Z,14.00
2019-03-28T13:53:13.795Z,14.00
2019-03-28T13:55:44.862Z,13.90
2019-03-28T13:58:15.911Z,13.90
2019-03-28T14:00:46.876Z,14.00
2019-03-28T14:03:17.924Z,14.00
2019-03-28T14:05:49.028Z,13.80
2019-03-28T14:08:21.675Z,13.90
2019-03-28T14:10:54.908Z,14.20
2019-03-28T14:13:25.790Z,14.10
2019-03-28T14:15:56.798Z,13.90
2019-03-28T14:18:27.664Z,13.80
2019-03-28T14:20:58.812Z,13.80
2019-03-28T14:23:29.711Z,13.90
2019-03-28T14:26:00.772Z,13.80
2019-03-28T14:28:31.886Z,13.90
2019-03-28T14:31:02.818Z,14.00
2019-03-28T14:33:33.828Z,13.60
2019-03-28T14:36:04.922Z,13.40
2019-03-28T14:38:37.743Z,13.50
2019-03-28T14:41:08.691Z,13.30
2019-03-28T14:43:42.315Z,13.50
2019-03-28T14:46:13.255Z,13.60
2019-03-28T14:48:44.154Z,13.40
2019-03-28T14:51:15.603Z,13.40
2019-03-28T14:53:47.073Z,13.30
2019-03-28T14:56:19.489Z,13.30
2019-03-28T14:58:55.341Z,13.10
2019-03-28T15:01:27.830Z,13.00
2019-03-28T15:03:58.703Z,13.00
2019-03-28T15:06:29.675Z,13.00
2019-03-28T15:09:00.579Z,12.80
2019-03-28T15:11:31.658Z,12.80
2019-03-28T15:14:02.605Z,12.80
2019-03-28T15:16:34.090Z,12.70
2019-03-28T15:19:05.066Z,12.80
2019-03-28T15:21:35.924Z,12.70
2019-03-28T15:24:06.768Z,12.70
2019-03-28T15:26:37.788Z,12.60
2019-03-28T15:29:08.718Z,12.50
2019-03-28T15:31:41.313Z,12.50
2019-03-28T15:34:12.295Z,12.60
2019-03-28T15:36:43.233Z,12.50
2019-03-28T15:39:14.328Z,12.50
2019-03-28T15:41:45.345Z,12.60
2019-03-28T15:44:16.389Z,12.40
2019-03-28T15:46:47.413Z,12.40
2019-03-28T15:49:18.708Z,12.30
2019-03-28T15:51:49.674Z,12.30
2019-03-28T15:54:20.626Z,12.30
2019-03-28T15:56:51.664Z,12.30
2019-03-28T15:59:22.704Z,12.40
2019-03-28T16:01:53.774Z,12.50
2019-03-28T16:04:25.119Z,12.40
2019-03-28T16:06:56.118Z,12.40
2019-03-28T16:09:26.995Z,12.40
2019-03-28T16:12:02.728Z,12.30
2019-03-28T16:14:30.549Z,12.30
2019-03-28T16:17:03.645Z,12.40
2019-03-28T16:19:35.578Z,12.30
2019-03-28T16:22:06.514Z,12.30
2019-03-28T16:24:37.485Z,12.30
2019-03-28T16:27:10.880Z,12.10
2019-03-28T16:29:41.993Z,12.20
2019-03-28T16:32:15.984Z,12.10
2019-03-28T16:34:45.575Z,12.10
2019-03-28T16:37:18.157Z,12.10
2019-03-28T16:39:50.269Z,12.00
2019-03-28T16:42:21.167Z,11.90
2019-03-28T16:44:52.083Z,11.80
2019-03-28T16:47:23.176Z,11.80
2019-03-28T16:49:54.118Z,11.80
2019-03-28T16:52:25.072Z,11.70
2019-03-28T16:54:56.174Z,11.70
2019-03-28T16:57:28.945Z,11.70
2019-03-28T17:00:00.009Z,11.70
2019-03-28T17:02:32.689Z,11.60
2019-03-28T17:05:03.701Z,11.60
2019-03-28T17:07:35.735Z,11.40
2019-03-28T17:10:07.366Z,11.40
2019-03-28T17:12:38.340Z,11.30
2019-03-28T17:15:09.554Z,11.20
2019-03-28T17:17:41.514Z,11.20
2019-03-28T17:20:14.897Z,11.20
2019-03-28T17:22:50.596Z,11.10
2019-03-28T17:25:24.818Z,11.10
2019-03-28T17:28:00.278Z,11.00
2019-03-28T17:30:32.888Z,10.90
2019-03-28T17:33:03.799Z,10.90
2019-03-28T17:35:34.826Z,10.90
2019-03-28T17:38:05.759Z,10.90
2019-03-28T17:40:36.992Z,10.90
2019-03-28T17:43:08.089Z,10.80
2019-03-28T17:45:38.979Z,10.80
2019-03-28T17:48:10.086Z,10.80
2019-03-28T17:50:44.043Z,10.60
2019-03-28T17:53:14.911Z,10.60
2019-03-28T17:55:45.925Z,10.60
2019-03-28T17:58:16.823Z,10.50
2019-03-28T18:00:48.926Z,10.50
2019-03-28T18:03:30.543Z,10.50
2019-03-28T18:05:57.910Z,10.50
2019-03-28T18:08:25.019Z,10.40
2019-03-28T18:10:56.011Z,10.40
2019-03-28T18:13:27.190Z,10.30
2019-03-28T18:15:58.011Z,10.30
2019-03-28T18:18:28.911Z,10.30
2019-03-28T18:20:59.885Z,10.30
2019-03-28T18:23:30.719Z,10.20
2019-03-28T18:26:01.575Z,10.20
2019-03-28T18:28:32.733Z,10.20
2019-03-28T18:31:03.676Z,10.20
2019-03-28T18:33:34.789Z,10.20
2019-03-28T18:36:07.455Z,10.10
2019-03-28T18:38:38.453Z,10.10
2019-03-28T18:41:09.592Z,10.10
2019-03-28T18:43:40.520Z,10.10
2019-03-28T18:46:14.624Z,10.00
2019-03-28T18:48:43.997Z,10.10
2019-03-28T18:51:14.847Z,10.00
2019-03-28T18:53:46.630Z,10.00
2019-03-28T18:56:21.780Z,10.00
2019-03-28T18:58:52.904Z,10.00
2019-03-28T19:01:25.480Z,9.90
2019-03-28T19:03:56.343Z,10.00
2019-03-28T19:06:27.204Z,9.90
2019-03-28T19:08:58.057Z,9.80
2019-03-28T19:11:29.168Z,9.80
2019-03-28T19:14:00.663Z,9.90
2019-03-28T19:16:31.471Z,9.80
2019-03-28T19:19:02.563Z,9.80
2019-03-28T19:21:33.695Z,9.80
2019-03-28T19:24:04.731Z,9.80
2019-03-28T19:26:37.695Z,9.80
2019-03-28T19:29:08.371Z,9.80
2019-03-28T19:31:39.474Z,9.80
2019-03-28T19:34:10.527Z,9.80
2019-03-28T19:36:44.934Z,9.70
2019-03-28T19:39:19.636Z,9.70
2019-03-28T19:41:51.187Z,9.70
2019-03-28T19:44:22.227Z,9.70
2019-03-28T19:46:53.765Z,9.70
2019-03-28T19:49:24.601Z,9.80
2019-03-28T19:51:58.084Z,9.80
2019-03-28T19:54:28.946Z,9.80
2019-03-28T19:57:01.448Z,9.70
2019-03-28T19:59:32.440Z,9.70
2019-03-28T20:02:03.501Z,9.70
2019-03-28T20:04:34.513Z,9.80
2019-03-28T20:07:05.355Z,9.70
2019-03-28T20:09:36.445Z,9.70
2019-03-28T20:12:07.409Z,9.70
2019-03-28T20:14:38.257Z,9.70
2019-03-28T20:17:09.299Z,9.70
2019-03-28T20:19:42.918Z,9.70
2019-03-28T20:22:15.831Z,9.70
2019-03-28T20:24:46.820Z,9.70
2019-03-28T20:27:17.931Z,9.70
2019-03-28T20:29:51.548Z,9.70
2019-03-28T20:32:22.406Z,9.70
2019-03-28T20:34:53.903Z,9.70
2019-03-28T20:37:24.875Z,9.70
2019-03-28T20:39:58.777Z,9.70
2019-03-28T20:42:29.812Z,9.70
2019-03-28T20:45:00.734Z,9.60
2019-03-28T20:47:31.620Z,9.70
2019-03-28T20:50:04.353Z,9.70
2019-03-28T20:52:35.329Z,9.70
2019-03-28T20:55:08.489Z,9.70
2019-03-28T20:57:40.520Z,9.70
2019-03-28T21:00:13.944Z,9.70
2019-03-28T21:02:44.952Z,9.70
2019-03-28T21:05:16.024Z,9.80
2019-03-28T21:07:47.047Z,9.70
2019-03-28T21:10:25.955Z,9.70
2019-03-28T21:12:57.030Z,9.60
2019-03-28T21:15:27.988Z,9.60
2019-03-28T21:18:01.305Z,9.60
2019-03-28T21:20:33.266Z,9.60
2019-03-28T21:23:08.211Z,9.60
2019-03-28T21:25:39.087Z,9.60
2019-03-28T21:28:09.993Z,9.50
2019-03-28T21:30:47.618Z,9.50
2019-03-28T21:33:20.005Z,9.40
2019-03-28T21:35:51.090Z,9.50
2019-03-28T21:38:21.983Z,9.40
2019-03-28T21:40:53.190Z,9.40
2019-03-28T21:43:25.078Z,9.40
2019-03-28T21:45:56.115Z,9.40
2019-03-28T21:48:28.449Z,9.40
2019-03-28T21:50:59.410Z,9.40
2019-03-28T21:53:30.364Z,9.40
2019-03-28T21:56:01.929Z,9.30
2019-03-28T21:58:32.781Z,9.30
2019-03-28T22:01:06.999Z,9.30
2019-03-28T22:03:41.078Z,9.20
2019-03-28T22:06:12.088Z,9.20
2019-03-28T22:08:50.465Z,9.20
2019-03-28T22:11:21.489Z,9.20
2019-03-28T22:13:53.081Z,9.10
2019-03-28T22:16:27.344Z,9.00
2019-03-28T22:18:58.457Z,8.90
2019-03-28T22:21:30.873Z,8.80
2019-03-28T22:24:01.893Z,8.80
2019-03-28T22:26:32.890Z,8.80
2019-03-28T22:29:03.792Z,8.70
2019-03-28T22:31:34.712Z,8.70
2019-03-28T22:34:05.679Z,8.60
2019-03-28T22:36:39.329Z,8.60
2019-03-28T22:39:10.269Z,8.50
2019-03-28T22:41:43.496Z,8.50
2019-03-28T22:44:14.458Z,8.40
2019-03-28T22:46:45.626Z,8.30
2019-03-28T22:49:16.614Z,8.20
2019-03-28T22:51:49.859Z,8.10
2019-03-28T22:54:22.637Z,8.20
2019-03-28T22:56:53.535Z,8.10
2019-03-28T22:59:27.320Z,7.90
2019-03-28T23:01:58.167Z,8.00
2019-03-28T23:04:30.812Z,7.90
2019-03-28T23:07:10.788Z,7.70
2019-03-28T23:09:35.061Z,7.60
2019-03-28T23:12:06.040Z,7.50
2019-03-28T23:14:39.016Z,7.50
2019-03-28T23:17:12.676Z,7.40
2019-03-28T23:19:46.482Z,7.30
2019-03-28T23:22:18.849Z,7.30
2019-03-28T23:24:53.928Z,7.30
2019-03-28T23:27:25.000Z,7.20
2019-03-28T23:29:58.196Z,7.10
2019-03-28T23:32:29.434Z,7.10
2019-03-28T23:35:00.529Z,7.10
2019-03-28T23:37:37.463Z,7.00
2019-03-28T23:40:08.611Z,7.00
2019-03-28T23:42:40.603Z,7.20
2019-03-28T23:45:12.986Z,7.00
2019-03-28T23:47:46.999Z,7.10
2019-03-28T23:50:19.846Z,7.00
2019-03-28T23:52:50.831Z,7.00
2019-03-28T23:55:21.869Z,6.90
2019-03-28T23:57:52.755Z,7.00
